Detalii statie UNIC PROD [00001D09]

Toti senzorii

Date Temperatura solului [C]Precipitatii [mm]Voltaj baterie [mV]Leaf Wetness [Min]HC Air temperature [C]HC Relative humidity [%]Punctul de roua [C]
medieminmaxsumaultimatimpmedieminmaxmediemediemin
2019-02-21 00:00:00 0 6844 6.7 6.25 7.55 88.22 4.7 4.3
2019-02-21 01:00:00 0 6834 6 5.54 6.26 93.86 4.9 4.8
2019-02-21 02:00:00 0 6834 5.14 4.93 5.51 99.26 4.9 4.8
2019-02-21 03:00:00 0 6826 4.58 3.08 5.31 97.23 4 2.9
2019-02-21 04:00:00 0 6826 3.23 2.97 3.4 100 3.2 2.9
2019-02-21 05:00:00 0 6816 3.53 3.4 3.67 100 3.5 3.4
2019-02-21 06:00:00 0 6816 4.02 3.41 4.42 100 3.9 3.4
2019-02-21 07:00:00 0 6816 3.68 3.47 4.19 100 3.6 3.4
2019-02-21 08:00:00 0 6854 3.04 2.57 3.87 100 2.9 2.5
2019-02-21 09:00:00 0 7186 4.72 2.96 6.46 99.84 4.6 2.9
2019-02-21 10:00:00 0 7246 7.8 6.97 8.33 85.51 5.4 4.6
2019-02-21 11:00:00 0 7254 9.25 8.41 9.78 72.77 4.4 3.2
2019-02-21 12:00:00 0 7246 11.03 10.44 11.99 56.98 2.6 1.1
2019-02-21 13:00:00 0 7246 12.26 11.43 12.96 45.75 0.7 0.1
2019-02-21 14:00:00 0 7236 13.16 12.76 13.62 41.75 0.2 -0.5
2019-02-21 15:00:00 0 7246 13.52 13.15 14.09 44.23 1.4 0.2
2019-02-21 16:00:00 0 7176 12.66 12.06 13.47 49.45 2.1 1.6
2019-02-21 17:00:00 0 7226 11.13 10.32 11.89 54.77 2.1 1.6
2019-02-21 18:00:00 0 6914 8.88 7.66 10.17 66.87 2.8 2.5
2019-02-21 19:00:00 0 6904 8.07 7.9 8.37 72.64 3.3 3.2
2019-02-21 20:00:00 0 6884 7.56 6.97 8.28 75.86 3.4 3.3
2019-02-21 21:00:00 0 6874 5.48 4.8 6.65 85.2 3 2.5
2019-02-21 22:00:00 0 6854 5.2 4.35 5.64 90.14 3.5 3.4
2019-02-21 23:00:00 0 6844 3.26 2.57 4.16 98.51 2.9 2.5
2019-02-22 00:00:00 0 6834 1.94 1.06 3.19 100 1.9 1
2019-02-22 01:00:00 0 6826 1.26 0.79 1.81 100 1.2 0.7
2019-02-22 02:00:00 0 6816 0.6 0.14 1.06 100 0.5 0.1
2019-02-22 03:00:00 0 6806 0.71 0.24 1.24 100 0.6 0.2
2019-02-22 04:00:00 0 6816 1.66 0.99 2.34 96.63 1 0.7
2019-02-22 05:00:00 0 6806 1.13 0.84 1.43 97.99 0.7 0.4
2019-02-22 06:00:00 0 6806 2.08 0.39 3.44 92.82 0.9 0.1
2019-02-22 07:00:00 0 6806 3.24 3.02 3.52 83.09 0.5 0.2
2019-02-22 08:00:00 0 6844 3.04 2.55 3.4 84.08 0.4 0.2
2019-02-22 09:00:00 0 7108 3.62 3.16 4.6 83.87 1 0.6
2019-02-22 10:00:00 0 7226 5.01 4.78 5.32 76.78 1.1 0.6
2019-02-22 11:00:00 0 7246 7.05 5.6 8.51 68.27 1.4 1.1
2019-02-22 12:00:00 0 7236 8.32 7.8 9.08 61.97 1.3 1
2019-02-22 13:00:00 0 7236 8.67 8.1 9.45 56.88 0.4 0.1
2019-02-22 14:00:00 0 7236 8.42 8.2 8.78 59.93 0.9 0.5
2019-02-22 15:00:00 0 7098 8.35 7.85 8.79 61.48 1.1 0.4
2019-02-22 16:00:00 0 6952 6.91 5.87 7.72 79.87 3.4 1.5
2019-02-22 17:00:00 0.8 6922 4.41 0.51 5.83 99.8 4.3 0.5
2019-02-22 18:00:00 0.4 6894 0.58 0.01 0.88 100 0.5 0
2019-02-22 19:00:00 0 6874 -0.21 -0.48 0.02 100 0 -0.3
2019-02-22 20:00:00 0 6864 -0.84 -1.12 -0.56 100 -0.6 -1
2019-02-22 21:00:00 0 6854 -1.67 -2.27 -1.17 100 -1.5 -2.1
2019-02-22 22:00:00 0 6826 -2.42 -2.53 -2.33 98.51 -2.5 -4.1
2019-02-22 23:00:00 0 6826 -2.28 -2.51 -2.13 69.3 -7.1 -8.2